Strona główna
METAR-TAF:

METAR-TAF

Lotnisko :

Sitiawan, Malezja

Szerokość geograficzna: 04-13N, Długość geograficzna: 100-42E, wysokość: 7 m

Aktualna obserwacja pogody

Raport powstał 36 minut temu, godzina 03:00 UTC
Wiatr 3 kt z kierunków zmiennych
Temperatura 29°C
Wilgotność 74%
Ciśnienie 1012 hPa
Widzialność: 9000 m
Mało chmury na wysokości 1700 ft, Cumulonimbus.

METAR: WMBA 100300Z VRB03KT 9000 FEW017CB 29/24 Q1012

czas: 11:36 (03:36 UTC)


TAF: brakujący

Obserwacja i prognoza pogody dla ponad 4000 lotnisk (raport METAR i TAF).

Dostępne stacje oznaczono żółtymi i czerwonymi punktami na mapie.

Najedź kursorem aby zobaczyć nazwę stacji.

Kliknij aby zobaczyć obserwacje i prognozy pogody.

Aby zmienić mapę: kliknij na zielony przycisk z czarnym krzyżykiem, aby powiększyć; na zielony przycisk z myślnikiem, aby pomniejszyć; na zielone strzałki, aby przejść do map sąsiednich.


METAR-TAF: